createdAt,value
2017-08-28T00:00:17.183Z,78.42
2017-08-28T00:02:48.384Z,78.43
2017-08-28T00:05:18.591Z,78.12
2017-08-28T00:07:48.990Z,78.11
2017-08-28T00:10:18.770Z,77.97
2017-08-28T00:12:48.658Z,77.80
2017-08-28T00:15:17.807Z,77.89
2017-08-28T00:17:47.870Z,77.91
2017-08-28T00:20:17.501Z,77.71
2017-08-28T00:22:47.930Z,77.93
2017-08-28T00:25:17.258Z,77.76
2017-08-28T00:27:47.821Z,78.01
2017-08-28T00:30:17.317Z,78.06
2017-08-28T00:32:48.132Z,78.20
2017-08-28T00:35:18.065Z,78.37
2017-08-28T00:37:48.027Z,78.53
2017-08-28T00:40:17.742Z,78.46
2017-08-28T00:42:48.278Z,78.35
2017-08-28T00:45:17.750Z,78.65
2017-08-28T00:47:48.128Z,81.83
2017-08-28T00:50:17.998Z,82.48
2017-08-28T00:52:49.535Z,81.15
2017-08-28T00:55:19.014Z,82.04
2017-08-28T00:57:48.769Z,84.59
2017-08-28T01:00:17.910Z,84.79
2017-08-28T01:02:47.655Z,86.92
2017-08-28T01:05:17.552Z,84.47
2017-08-28T01:07:48.006Z,83.20
2017-08-28T01:10:17.496Z,88.28
2017-08-28T01:12:47.612Z,88.01
2017-08-28T01:15:16.859Z,84.25
2017-08-28T01:17:47.378Z,89.53
2017-08-28T01:20:17.037Z,89.15
2017-08-28T01:22:47.789Z,88.60
2017-08-28T01:25:17.271Z,85.06
2017-08-28T01:27:48.163Z,83.06
2017-08-28T01:30:17.633Z,82.10
2017-08-28T01:32:47.358Z,81.92
2017-08-28T01:35:17.077Z,81.67
2017-08-28T01:37:48.083Z,81.26
2017-08-28T01:40:17.507Z,81.54
2017-08-28T01:42:48.377Z,81.31
2017-08-28T01:45:25.833Z,81.04
2017-08-28T01:47:55.714Z,85.20
2017-08-28T01:50:25.247Z,82.83
2017-08-28T01:52:54.462Z,81.77
2017-08-28T01:55:24.139Z,81.72
2017-08-28T01:57:53.558Z,81.73
2017-08-28T02:00:22.727Z,81.57
2017-08-28T02:02:52.446Z,82.16
2017-08-28T02:05:21.870Z,82.43
2017-08-28T02:07:51.364Z,82.66
2017-08-28T02:10:20.975Z,83.02
2017-08-28T02:12:50.186Z,82.99
2017-08-28T02:15:19.790Z,83.05
2017-08-28T02:17:49.278Z,83.16
2017-08-28T02:20:18.784Z,83.09
2017-08-28T02:22:48.258Z,83.12
2017-08-28T02:25:17.579Z,83.43
2017-08-28T02:27:47.442Z,82.96
2017-08-28T02:30:16.786Z,83.01
2017-08-28T02:32:47.557Z,83.08
2017-08-28T02:35:17.129Z,82.42
2017-08-28T02:37:47.385Z,82.11
2017-08-28T02:40:16.750Z,81.99
2017-08-28T02:42:47.834Z,82.03
2017-08-28T02:45:17.300Z,82.14
2017-08-28T02:47:47.743Z,82.33
2017-08-28T02:52:51.003Z,82.33
2017-08-28T02:55:20.724Z,82.21
2017-08-28T02:57:50.184Z,81.99
2017-08-28T03:00:20.284Z,82.02
2017-08-28T03:02:50.188Z,82.11
2017-08-28T03:05:19.868Z,81.98
2017-08-28T03:07:51.034Z,82.06
2017-08-28T03:10:21.154Z,81.96
2017-08-28T03:12:50.594Z,81.92
2017-08-28T03:15:20.067Z,81.86
2017-08-28T03:17:49.789Z,82.78
2017-08-28T03:20:19.316Z,83.09
2017-08-28T03:22:51.958Z,83.27
2017-08-28T03:25:22.887Z,83.38
2017-08-28T03:27:52.215Z,82.81
2017-08-28T03:30:21.609Z,82.92
2017-08-28T03:32:51.135Z,82.74
2017-08-28T03:35:20.597Z,83.11
2017-08-28T03:37:50.218Z,83.27
2017-08-28T03:40:19.915Z,83.58
2017-08-28T03:42:49.332Z,83.93
2017-08-28T03:45:18.852Z,83.47
2017-08-28T03:47:48.950Z,83.40
2017-08-28T03:50:18.366Z,83.29
2017-08-28T03:52:48.564Z,83.42
2017-08-28T03:55:18.138Z,82.80
2017-08-28T03:57:47.937Z,82.70
2017-08-28T04:00:17.399Z,82.78
2017-08-28T04:02:47.283Z,82.90
2017-08-28T04:05:16.531Z,82.31
2017-08-28T04:07:48.333Z,82.51
2017-08-28T04:10:19.422Z,82.59
2017-08-28T04:12:51.574Z,82.88
2017-08-28T04:15:20.937Z,82.69
2017-08-28T04:17:50.186Z,82.49
2017-08-28T04:20:19.982Z,83.16
2017-08-28T04:22:49.284Z,82.83
2017-08-28T04:25:18.617Z,82.77
2017-08-28T04:27:49.455Z,82.88
2017-08-28T04:30:18.882Z,82.75
2017-08-28T04:32:50.182Z,82.47
2017-08-28T04:35:19.890Z,83.05
2017-08-28T04:38:00.247Z,83.42
2017-08-28T04:40:33.588Z,83.39
2017-08-28T04:43:03.039Z,83.62
2017-08-28T04:45:33.927Z,84.02
2017-08-28T04:48:05.998Z,84.19
2017-08-28T04:50:35.214Z,84.05
2017-08-28T04:53:04.448Z,84.15
2017-08-28T04:55:34.263Z,84.12
2017-08-28T04:58:03.510Z,84.46
2017-08-28T05:00:32.809Z,84.58
2017-08-28T05:03:02.568Z,84.58
2017-08-28T05:05:31.727Z,84.32
2017-08-28T05:08:00.881Z,84.23
2017-08-28T05:10:30.655Z,84.34
2017-08-28T05:13:00.193Z,84.09
2017-08-28T05:15:29.550Z,84.24
2017-08-28T05:17:59.189Z,84.76
2017-08-28T05:20:28.454Z,84.47
2017-08-28T05:22:58.264Z,84.99
2017-08-28T05:25:27.764Z,85.11
2017-08-28T05:27:57.020Z,84.99
2017-08-28T05:30:26.187Z,85.27
2017-08-28T05:32:55.642Z,85.31
2017-08-28T05:35:25.035Z,85.86
2017-08-28T05:37:55.112Z,85.89
2017-08-28T05:42:46.240Z,86.11
2017-08-28T05:45:15.618Z,85.54
2017-08-28T05:47:47.125Z,85.64
2017-08-28T05:50:16.386Z,85.24
2017-08-28T05:52:46.535Z,85.22
2017-08-28T05:55:16.059Z,85.48
2017-08-28T05:57:46.278Z,85.35
2017-08-28T06:00:15.768Z,85.66
2017-08-28T06:02:47.074Z,86.42
2017-08-28T06:05:16.467Z,85.32
2017-08-28T06:07:46.747Z,84.13
2017-08-28T06:10:16.263Z,84.99
2017-08-28T06:12:46.415Z,84.07
2017-08-28T06:15:15.602Z,84.23
2017-08-28T06:17:46.514Z,85.58
2017-08-28T06:20:15.695Z,84.48
2017-08-28T06:22:45.895Z,84.69
2017-08-28T06:25:15.355Z,84.83
2017-08-28T06:27:45.618Z,84.27
2017-08-28T06:30:14.986Z,84.61
2017-08-28T06:32:45.814Z,83.38
2017-08-28T06:35:15.064Z,84.01
2017-08-28T06:37:46.004Z,83.11
2017-08-28T06:40:15.479Z,82.54
2017-08-28T06:42:46.266Z,82.14
2017-08-28T06:45:15.471Z,83.50
2017-08-28T06:47:47.333Z,84.28
2017-08-28T06:50:16.586Z,82.44
2017-08-28T06:52:47.499Z,81.73
2017-08-28T06:55:17.203Z,83.10
2017-08-28T06:57:47.167Z,80.66
2017-08-28T07:00:16.331Z,78.81
2017-08-28T07:02:47.607Z,79.44
2017-08-28T07:05:16.791Z,78.55
2017-08-28T07:07:49.060Z,79.22
2017-08-28T07:10:18.506Z,77.87
2017-08-28T07:12:47.720Z,79.01
2017-08-28T07:15:16.871Z,78.46
2017-08-28T07:17:49.344Z,75.02
2017-08-28T07:20:18.923Z,76.35
2017-08-28T07:22:48.726Z,75.82
2017-08-28T07:25:18.471Z,75.84
2017-08-28T07:27:47.676Z,73.21
2017-08-28T07:30:21.370Z,74.98
2017-08-28T07:32:51.261Z,70.48
2017-08-28T07:35:20.510Z,68.18
2017-08-28T07:37:49.670Z,72.42
2017-08-28T07:40:19.298Z,71.62
2017-08-28T07:42:52.820Z,72.05
2017-08-28T07:45:21.979Z,73.24
2017-08-28T07:47:51.471Z,70.17
2017-08-28T07:50:20.729Z,69.11
2017-08-28T07:52:49.894Z,67.28
2017-08-28T07:55:19.423Z,66.70
2017-08-28T07:57:48.630Z,65.92
2017-08-28T08:00:17.950Z,66.44
2017-08-28T08:02:48.109Z,64.83
2017-08-28T08:05:17.331Z,66.66
2017-08-28T08:07:47.982Z,67.38
2017-08-28T08:10:17.556Z,64.42
2017-08-28T08:12:47.490Z,63.00
2017-08-28T08:15:16.787Z,66.04
2017-08-28T08:17:47.855Z,62.76
2017-08-28T08:20:17.287Z,60.40
2017-08-28T08:22:47.475Z,60.92
2017-08-28T08:25:16.939Z,61.94
2017-08-28T08:27:47.927Z,60.99
2017-08-28T08:30:17.106Z,61.01
2017-08-28T08:32:47.535Z,63.03
2017-08-28T08:35:16.735Z,65.73
2017-08-28T08:37:47.833Z,66.61
2017-08-28T08:40:17.355Z,64.39
2017-08-28T08:42:48.257Z,67.28
2017-08-28T08:45:17.455Z,63.01
2017-08-28T08:47:48.376Z,62.32
2017-08-28T08:50:17.726Z,64.77
2017-08-28T08:52:47.815Z,62.50
2017-08-28T08:55:17.365Z,61.57
2017-08-28T08:57:47.670Z,58.70
2017-08-28T09:00:16.928Z,62.14
2017-08-28T09:02:48.126Z,58.97
2017-08-28T09:05:17.578Z,58.15
2017-08-28T09:07:48.487Z,58.80
2017-08-28T09:10:18.530Z,59.79
2017-08-28T09:12:47.802Z,57.69
2017-08-28T09:15:17.233Z,58.01
2017-08-28T09:17:47.678Z,54.27
2017-08-28T09:20:17.306Z,56.65
2017-08-28T09:22:47.350Z,54.83
2017-08-28T09:25:16.825Z,53.20
2017-08-28T09:27:47.251Z,50.27
2017-08-28T09:30:16.448Z,52.01
2017-08-28T09:32:48.920Z,56.57
2017-08-28T09:35:18.086Z,54.70
2017-08-28T09:37:47.698Z,53.90
2017-08-28T09:40:17.155Z,53.62
2017-08-28T09:42:47.316Z,52.15
2017-08-28T09:45:16.595Z,50.03
2017-08-28T09:47:48.028Z,49.01
2017-08-28T09:50:17.358Z,53.71
2017-08-28T09:52:46.767Z,49.80
2017-08-28T09:55:16.844Z,47.13
2017-08-28T09:57:47.855Z,50.78
2017-08-28T10:00:17.055Z,49.19
2017-08-28T10:02:47.394Z,51.60
2017-08-28T10:05:16.573Z,51.19
2017-08-28T10:07:49.050Z,47.70
2017-08-28T10:10:18.712Z,52.45
2017-08-28T10:12:47.934Z,50.64
2017-08-28T10:15:17.303Z,47.44
2017-08-28T10:17:52.810Z,48.57
2017-08-28T10:20:22.086Z,52.04
2017-08-28T10:23:00.777Z,49.11
2017-08-28T10:25:32.651Z,47.14
2017-08-28T10:28:03.253Z,50.08
2017-08-28T10:30:33.500Z,46.45
2017-08-28T10:33:02.717Z,44.35
2017-08-28T10:35:51.801Z,43.92
2017-08-28T10:38:21.020Z,45.08
2017-08-28T10:40:50.526Z,48.84
2017-08-28T10:43:19.695Z,48.67
2017-08-28T10:45:49.539Z,49.26
2017-08-28T10:48:19.090Z,51.01
2017-08-28T10:50:48.435Z,49.86
2017-08-28T10:53:17.606Z,51.39
2017-08-28T10:55:47.730Z,52.78
2017-08-28T10:58:16.887Z,48.93
2017-08-28T11:00:46.941Z,49.61
2017-08-28T11:03:16.370Z,51.23
2017-08-28T11:05:46.632Z,47.67
2017-08-28T11:08:15.868Z,42.62
2017-08-28T11:10:46.734Z,48.50
2017-08-28T11:13:15.938Z,48.45
2017-08-28T11:15:46.271Z,47.74
2017-08-28T11:18:15.758Z,48.43
2017-08-28T11:20:48.189Z,48.73
2017-08-28T11:23:17.617Z,44.25
2017-08-28T11:25:48.247Z,45.90
2017-08-28T11:28:17.447Z,43.61
2017-08-28T11:30:48.142Z,47.38
2017-08-28T11:33:17.415Z,48.31
2017-08-28T11:35:47.204Z,45.96
2017-08-28T11:38:16.657Z,43.92
2017-08-28T11:40:47.890Z,43.07
2017-08-28T11:43:17.095Z,40.68
2017-08-28T11:45:47.368Z,39.45
2017-08-28T11:48:16.731Z,40.08
2017-08-28T11:50:47.331Z,38.23
2017-08-28T11:53:16.910Z,42.05
2017-08-28T11:55:47.231Z,41.83
2017-08-28T11:58:16.455Z,43.71
2017-08-28T12:00:47.182Z,45.10
2017-08-28T12:03:16.314Z,45.24
2017-08-28T12:05:46.914Z,44.24
2017-08-28T12:08:16.374Z,43.58
2017-08-28T12:10:47.278Z,44.79
2017-08-28T12:13:16.496Z,43.01
2017-08-28T12:15:47.258Z,44.66
2017-08-28T12:18:16.450Z,43.80
2017-08-28T12:20:46.698Z,44.58
2017-08-28T12:23:16.422Z,43.44
2017-08-28T12:25:46.475Z,39.56
2017-08-28T12:28:15.668Z,42.21
2017-08-28T12:30:46.760Z,42.03
2017-08-28T12:33:16.096Z,44.95
2017-08-28T12:35:47.128Z,42.25
2017-08-28T12:38:16.742Z,43.28
2017-08-28T12:40:47.854Z,42.38
2017-08-28T12:43:17.302Z,42.64
2017-08-28T12:45:48.306Z,41.63
2017-08-28T12:48:17.486Z,39.42
2017-08-28T12:50:47.101Z,40.57
2017-08-28T12:53:16.598Z,39.61
2017-08-28T12:55:47.239Z,39.67
2017-08-28T12:58:16.427Z,36.75
2017-08-28T13:00:45.926Z,35.88
2017-08-28T13:03:15.179Z,36.37
2017-08-28T13:05:45.342Z,39.90
2017-08-28T13:08:15.166Z,39.41
2017-08-28T13:10:45.507Z,37.97
2017-08-28T13:13:14.879Z,39.76
2017-08-28T13:15:46.577Z,43.63
2017-08-28T13:18:15.883Z,46.16
2017-08-28T13:20:46.583Z,42.24
2017-08-28T13:23:16.367Z,38.23
2017-08-28T13:25:47.114Z,41.05
2017-08-28T13:28:16.446Z,44.64
2017-08-28T13:30:46.166Z,41.21
2017-08-28T13:33:15.350Z,43.41
2017-08-28T13:35:44.662Z,43.45
2017-08-28T13:38:14.097Z,44.96
2017-08-28T13:40:45.086Z,42.20
2017-08-28T13:43:14.274Z,43.13
2017-08-28T13:45:45.134Z,40.75
2017-08-28T13:48:14.471Z,44.20
2017-08-28T13:50:45.267Z,42.81
2017-08-28T13:53:14.857Z,44.17
2017-08-28T13:55:47.215Z,44.91
2017-08-28T13:58:16.866Z,45.09
2017-08-28T14:00:50.893Z,45.59
2017-08-28T14:03:22.693Z,46.87
2017-08-28T14:05:51.958Z,44.82
2017-08-28T14:08:21.581Z,47.19
2017-08-28T14:10:50.866Z,45.36
2017-08-28T14:13:20.302Z,42.08
2017-08-28T14:15:50.058Z,45.19
2017-08-28T14:18:19.224Z,46.44
2017-08-28T14:23:45.235Z,43.41
2017-08-28T14:26:14.601Z,43.22
2017-08-28T14:28:46.975Z,43.08
2017-08-28T14:31:16.390Z,43.24
2017-08-28T14:33:45.903Z,44.21
2017-08-28T14:36:15.157Z,43.59
2017-08-28T14:38:46.147Z,43.13
2017-08-28T14:41:15.635Z,43.84
2017-08-28T14:43:44.790Z,42.74
2017-08-28T14:46:13.948Z,44.99
2017-08-28T14:48:43.390Z,44.80
2017-08-28T14:51:14.397Z,44.54
2017-08-28T14:53:45.878Z,46.86
2017-08-28T14:56:15.304Z,44.88
2017-08-28T14:58:44.458Z,44.62
2017-08-28T15:01:13.614Z,44.78
2017-08-28T15:03:46.643Z,45.25
2017-08-28T15:06:16.091Z,46.04
2017-08-28T15:08:45.313Z,45.65
2017-08-28T15:11:14.887Z,45.07
2017-08-28T15:13:47.486Z,46.18
2017-08-28T15:16:16.639Z,45.24
2017-08-28T15:18:48.343Z,47.59
2017-08-28T15:21:17.610Z,45.18
2017-08-28T15:23:47.640Z,45.13
2017-08-28T15:26:17.170Z,45.76
2017-08-28T15:28:46.400Z,43.97
2017-08-28T15:31:15.575Z,43.53
2017-08-28T15:33:45.035Z,45.18
2017-08-28T15:36:14.326Z,44.56
2017-08-28T15:38:44.995Z,44.78
2017-08-28T15:41:14.546Z,45.57
2017-08-28T15:43:43.675Z,46.88
2017-08-28T15:46:12.874Z,46.43
2017-08-28T15:48:42.351Z,46.09
2017-08-28T15:51:11.730Z,46.32
2017-08-28T15:53:40.890Z,45.83
2017-08-28T15:56:10.403Z,44.04
2017-08-28T15:58:39.616Z,45.16
2017-08-28T16:01:08.782Z,46.16
2017-08-28T16:03:38.267Z,46.26
2017-08-28T16:06:07.454Z,46.21
2017-08-28T16:08:36.612Z,45.56
2017-08-28T16:11:06.151Z,44.98
2017-08-28T16:13:38.450Z,46.45
2017-08-28T16:16:09.011Z,46.16
2017-08-28T16:18:39.614Z,46.24
2017-08-28T16:21:09.079Z,45.19
2017-08-28T16:23:38.245Z,43.71
2017-08-28T16:26:07.811Z,45.74
2017-08-28T16:28:37.018Z,44.39
2017-08-28T16:31:07.554Z,44.31
2017-08-28T16:33:37.030Z,45.85
2017-08-28T16:36:06.466Z,46.95
2017-08-28T16:38:35.644Z,46.84
2017-08-28T16:41:05.118Z,45.99
2017-08-28T16:43:34.316Z,47.14
2017-08-28T16:46:03.774Z,46.91
2017-08-28T16:48:33.243Z,44.62
2017-08-28T16:51:02.486Z,44.71
2017-08-28T16:53:31.664Z,44.84
2017-08-28T16:56:01.234Z,46.44
2017-08-28T16:58:30.394Z,46.66
2017-08-28T17:00:59.575Z,46.90
2017-08-28T17:03:29.115Z,47.89
2017-08-28T17:05:58.340Z,47.72
2017-08-28T17:08:28.823Z,48.86
2017-08-28T17:10:58.339Z,47.03
2017-08-28T17:13:27.490Z,46.61
2017-08-28T17:15:56.654Z,46.63
2017-08-28T17:18:26.226Z,46.97
2017-08-28T17:20:55.467Z,46.98
2017-08-28T17:23:25.442Z,45.96
2017-08-28T17:25:54.908Z,46.76
2017-08-28T17:28:24.180Z,47.87
2017-08-28T17:30:53.326Z,49.97
2017-08-28T17:33:22.816Z,48.17
2017-08-28T17:35:51.991Z,50.89
2017-08-28T17:38:21.134Z,51.60
2017-08-28T17:40:51.071Z,51.29
2017-08-28T17:43:20.510Z,50.84
2017-08-28T17:45:50.086Z,51.80
2017-08-28T17:48:19.711Z,52.36
2017-08-28T17:50:48.954Z,51.80
2017-08-28T17:53:18.134Z,53.12
2017-08-28T17:55:47.666Z,53.09
2017-08-28T17:58:17.039Z,53.77
2017-08-28T18:00:50.607Z,53.30
2017-08-28T18:03:20.262Z,52.80
2017-08-28T18:05:49.723Z,54.20
2017-08-28T18:08:18.887Z,55.21
2017-08-28T18:10:48.655Z,54.50
2017-08-28T18:13:17.924Z,56.72
2017-08-28T18:15:47.951Z,55.95
2017-08-28T18:18:17.526Z,55.78
2017-08-28T18:20:48.833Z,55.47
2017-08-28T18:23:17.978Z,55.31
2017-08-28T18:25:48.421Z,54.70
2017-08-28T18:28:17.684Z,54.56
2017-08-28T18:30:47.266Z,55.33
2017-08-28T18:33:17.203Z,55.11
2017-08-28T18:35:48.115Z,55.20
2017-08-28T18:38:17.295Z,55.40
2017-08-28T18:40:48.107Z,55.28
2017-08-28T18:43:17.374Z,55.70
2017-08-28T18:45:47.523Z,56.02
2017-08-28T18:48:17.039Z,56.39
2017-08-28T18:50:48.051Z,57.18
2017-08-28T18:53:17.346Z,57.89
2017-08-28T18:55:48.077Z,58.38
2017-08-28T18:58:17.414Z,58.59
2017-08-28T19:00:48.363Z,58.87
2017-08-28T19:03:17.847Z,59.22
2017-08-28T19:05:47.835Z,58.93
2017-08-28T19:08:17.034Z,59.14
2017-08-28T19:10:49.811Z,59.18
2017-08-28T19:13:19.077Z,59.32
2017-08-28T19:15:48.418Z,59.24
2017-08-28T19:18:19.369Z,59.17
2017-08-28T19:20:48.651Z,59.27
2017-08-28T19:23:17.986Z,59.51
2017-08-28T19:25:48.028Z,59.69
2017-08-28T19:28:17.296Z,60.03
2017-08-28T19:30:48.706Z,59.96
2017-08-28T19:33:18.207Z,60.06
2017-08-28T19:35:47.467Z,60.17
2017-08-28T19:38:16.831Z,60.39
2017-08-28T19:40:48.374Z,60.15
2017-08-28T19:43:18.153Z,60.54
2017-08-28T19:45:48.463Z,60.60
2017-08-28T19:48:18.232Z,60.68
2017-08-28T19:50:47.670Z,61.70
2017-08-28T19:53:16.846Z,61.45
2017-08-28T19:55:46.627Z,60.93
2017-08-28T19:58:15.807Z,61.39
2017-08-28T20:00:47.307Z,61.55
2017-08-28T20:03:17.007Z,62.50
2017-08-28T20:05:49.265Z,62.24
2017-08-28T20:08:19.014Z,62.21
2017-08-28T20:10:48.883Z,63.53
2017-08-28T20:13:18.141Z,64.08
2017-08-28T20:15:48.480Z,64.14
2017-08-28T20:18:17.839Z,63.05
2017-08-28T20:20:47.963Z,63.06
2017-08-28T20:23:17.653Z,63.21
2017-08-28T20:25:48.183Z,62.99
2017-08-28T20:28:21.879Z,63.44
2017-08-28T20:30:51.913Z,63.74
2017-08-28T20:33:23.633Z,63.65
2017-08-28T20:35:52.837Z,64.47
2017-08-28T20:38:22.826Z,67.69
2017-08-28T20:40:52.051Z,68.40
2017-08-28T20:43:21.243Z,67.96
2017-08-28T20:45:50.743Z,68.32
2017-08-28T20:48:20.087Z,70.94
2017-08-28T20:50:49.478Z,68.31
2017-08-28T20:53:19.037Z,72.03
2017-08-28T20:55:48.631Z,71.61
2017-08-28T20:58:17.889Z,73.59
2017-08-28T21:00:47.418Z,71.16
2017-08-28T21:03:16.559Z,69.63
2017-08-28T21:05:47.346Z,71.87
2017-08-28T21:08:17.017Z,70.78
2017-08-28T21:10:48.166Z,71.30
2017-08-28T21:13:17.521Z,70.62
2017-08-28T21:15:48.847Z,72.32
2017-08-28T21:18:18.002Z,71.53
2017-08-28T21:20:47.150Z,72.13
2017-08-28T21:23:16.617Z,71.78
2017-08-28T21:25:47.762Z,70.92
2017-08-28T21:28:16.994Z,70.25
2017-08-28T21:30:46.468Z,75.19
2017-08-28T21:33:15.819Z,72.60
2017-08-28T21:35:46.971Z,72.71
2017-08-28T21:38:16.546Z,74.29
2017-08-28T21:40:45.761Z,71.72
2017-08-28T21:43:14.908Z,72.98
2017-08-28T21:45:46.816Z,73.48
2017-08-28T21:48:16.139Z,72.30
2017-08-28T21:50:47.006Z,72.54
2017-08-28T21:53:16.669Z,72.75
2017-08-28T21:55:49.470Z,71.96
2017-08-28T21:58:20.094Z,72.29
2017-08-28T22:00:49.312Z,72.40
2017-08-28T22:03:18.522Z,72.50
2017-08-28T22:05:48.134Z,73.19
2017-08-28T22:08:17.315Z,72.04
2017-08-28T22:10:47.634Z,72.51
2017-08-28T22:13:17.090Z,73.11
2017-08-28T22:15:47.929Z,74.79
2017-08-28T22:18:17.147Z,72.54
2017-08-28T22:20:50.180Z,72.33
2017-08-28T22:23:19.343Z,72.30
2017-08-28T22:25:48.527Z,72.47
2017-08-28T22:28:18.186Z,72.09
2017-08-28T22:30:48.351Z,73.04
2017-08-28T22:33:17.519Z,72.88
2017-08-28T22:35:48.215Z,72.68
2017-08-28T22:38:17.342Z,74.26
2017-08-28T22:40:48.290Z,73.99
2017-08-28T22:43:17.929Z,74.18
2017-08-28T22:45:48.106Z,77.38
2017-08-28T22:48:17.433Z,76.92
2017-08-28T22:50:47.947Z,77.02
2017-08-28T22:53:17.208Z,77.07
2017-08-28T22:55:47.622Z,79.44
2017-08-28T22:58:17.667Z,77.25
2017-08-28T23:00:48.063Z,77.26
2017-08-28T23:03:17.313Z,76.58
2017-08-28T23:05:48.404Z,76.66
2017-08-28T23:08:17.674Z,79.70
2017-08-28T23:10:48.211Z,76.51
2017-08-28T23:13:17.766Z,78.06
2017-08-28T23:15:50.249Z,75.79
2017-08-28T23:18:19.882Z,75.08
2017-08-28T23:20:49.802Z,75.64
2017-08-28T23:23:18.951Z,76.50
2017-08-28T23:25:48.434Z,75.94
2017-08-28T23:28:17.886Z,75.92
2017-08-28T23:30:48.046Z,76.29
2017-08-28T23:33:17.216Z,76.79
2017-08-28T23:35:48.171Z,77.95
2017-08-28T23:38:17.322Z,78.12
2017-08-28T23:40:49.359Z,77.04
2017-08-28T23:43:19.198Z,80.09
2017-08-28T23:45:48.450Z,79.81
2017-08-28T23:48:17.870Z,79.97
2017-08-28T23:50:48.223Z,79.13
2017-08-28T23:53:17.381Z,80.62
2017-08-28T23:55:48.310Z,78.73
2017-08-28T23:58:18.134Z,80.53
